sensor_id;sensor_type;location;lat;lon;timestamp;temperature;humidity
44863;DHT22;30597;49.628;10.850;2023-09-12T00:02:04;25.60;70.40
44863;DHT22;30597;49.628;10.850;2023-09-12T00:04:30;25.60;70.50
44863;DHT22;30597;49.628;10.850;2023-09-12T00:06:55;25.60;70.40
44863;DHT22;30597;49.628;10.850;2023-09-12T00:09:21;25.60;70.40
44863;DHT22;30597;49.628;10.850;2023-09-12T00:11:46;25.60;70.60
44863;DHT22;30597;49.628;10.850;2023-09-12T00:14:15;25.60;70.70
44863;DHT22;30597;49.628;10.850;2023-09-12T00:16:41;25.60;70.70
44863;DHT22;30597;49.628;10.850;2023-09-12T00:19:07;25.60;70.50
44863;DHT22;30597;49.628;10.850;2023-09-12T00:21:33;25.70;70.70
44863;DHT22;30597;49.628;10.850;2023-09-12T00:23:58;25.60;70.50
44863;DHT22;30597;49.628;10.850;2023-09-12T00:26:24;25.60;70.40
44863;DHT22;30597;49.628;10.850;2023-09-12T00:28:49;25.60;70.40
44863;DHT22;30597;49.628;10.850;2023-09-12T00:31:15;25.60;70.20
44863;DHT22;30597;49.628;10.850;2023-09-12T00:33:40;25.60;70.30
44863;DHT22;30597;49.628;10.850;2023-09-12T00:36:06;25.60;70.20
44863;DHT22;30597;49.628;10.850;2023-09-12T00:38:31;25.60;70.30
44863;DHT22;30597;49.628;10.850;2023-09-12T00:40:57;25.60;70.30
44863;DHT22;30597;49.628;10.850;2023-09-12T00:43:22;25.60;70.20
44863;DHT22;30597;49.628;10.850;2023-09-12T00:45:48;25.60;70.20
44863;DHT22;30597;49.628;10.850;2023-09-12T00:48:15;25.50;70.20
44863;DHT22;30597;49.628;10.850;2023-09-12T00:50:42;25.60;70.30
44863;DHT22;30597;49.628;10.850;2023-09-12T00:53:08;25.50;70.40
44863;DHT22;30597;49.628;10.850;2023-09-12T00:55:36;25.50;70.40
44863;DHT22;30597;49.628;10.850;2023-09-12T00:58:04;25.50;70.50
44863;DHT22;30597;49.628;10.850;2023-09-12T01:00:29;25.50;70.30
44863;DHT22;30597;49.628;10.850;2023-09-12T01:02:55;25.50;70.30
44863;DHT22;30597;49.628;10.850;2023-09-12T01:05:22;25.50;70.30
44863;DHT22;30597;49.628;10.850;2023-09-12T01:07:48;25.50;70.20
44863;DHT22;30597;49.628;10.850;2023-09-12T01:10:13;25.50;70.30
44863;DHT22;30597;49.628;10.850;2023-09-12T01:12:39;25.50;70.30
44863;DHT22;30597;49.628;10.850;2023-09-12T01:15:05;25.50;70.30
44863;DHT22;30597;49.628;10.850;2023-09-12T01:17:36;25.50;70.20
44863;DHT22;30597;49.628;10.850;2023-09-12T01:20:05;25.50;70.20
44863;DHT22;30597;49.628;10.850;2023-09-12T01:22:55;25.50;70.40
44863;DHT22;30597;49.628;10.850;2023-09-12T01:25:34;25.50;70.50
44863;DHT22;30597;49.628;10.850;2023-09-12T01:28:05;25.50;70.50
44863;DHT22;30597;49.628;10.850;2023-09-12T01:30:32;25.60;70.70
44863;DHT22;30597;49.628;10.850;2023-09-12T01:33:00;25.50;70.80
44863;DHT22;30597;49.628;10.850;2023-09-12T01:35:26;25.50;70.30
44863;DHT22;30597;49.628;10.850;2023-09-12T01:37:51;25.50;69.80
44863;DHT22;30597;49.628;10.850;2023-09-12T01:40:17;25.50;69.10
44863;DHT22;30597;49.628;10.850;2023-09-12T01:42:46;25.50;66.50
44863;DHT22;30597;49.628;10.850;2023-09-12T01:45:16;25.50;64.40
44863;DHT22;30597;49.628;10.850;2023-09-12T01:47:42;25.50;61.70
44863;DHT22;30597;49.628;10.850;2023-09-12T01:50:12;25.40;62.60
44863;DHT22;30597;49.628;10.850;2023-09-12T01:52:39;25.40;63.80
44863;DHT22;30597;49.628;10.850;2023-09-12T01:55:06;25.40;64.60
44863;DHT22;30597;49.628;10.850;2023-09-12T01:57:35;25.40;64.70
44863;DHT22;30597;49.628;10.850;2023-09-12T02:00:01;25.40;65.10
44863;DHT22;30597;49.628;10.850;2023-09-12T02:02:26;25.50;65.20
44863;DHT22;30597;49.628;10.850;2023-09-12T02:07:37;25.40;65.70
44863;DHT22;30597;49.628;10.850;2023-09-12T02:10:03;25.40;65.90
44863;DHT22;30597;49.628;10.850;2023-09-12T02:12:31;25.50;66.00
44863;DHT22;30597;49.628;10.850;2023-09-12T02:14:56;25.50;66.20
44863;DHT22;30597;49.628;10.850;2023-09-12T02:17:22;25.50;66.20
44863;DHT22;30597;49.628;10.850;2023-09-12T02:19:48;25.50;66.20
44863;DHT22;30597;49.628;10.850;2023-09-12T02:22:14;25.50;66.20
44863;DHT22;30597;49.628;10.850;2023-09-12T02:24:39;25.50;66.20
44863;DHT22;30597;49.628;10.850;2023-09-12T02:27:05;25.50;66.30
44863;DHT22;30597;49.628;10.850;2023-09-12T02:29:30;25.50;66.40
44863;DHT22;30597;49.628;10.850;2023-09-12T02:31:58;25.50;66.60
44863;DHT22;30597;49.628;10.850;2023-09-12T02:34:23;25.50;66.70
44863;DHT22;30597;49.628;10.850;2023-09-12T02:36:49;25.40;66.60
44863;DHT22;30597;49.628;10.850;2023-09-12T02:39:14;25.40;66.80
44863;DHT22;30597;49.628;10.850;2023-09-12T02:41:40;25.40;66.90
44863;DHT22;30597;49.628;10.850;2023-09-12T02:44:06;25.40;66.90
44863;DHT22;30597;49.628;10.850;2023-09-12T02:46:32;25.30;67.10
44863;DHT22;30597;49.628;10.850;2023-09-12T02:48:58;25.30;67.40
44863;DHT22;30597;49.628;10.850;2023-09-12T02:51:25;25.30;67.40
44863;DHT22;30597;49.628;10.850;2023-09-12T02:53:51;25.30;67.50
44863;DHT22;30597;49.628;10.850;2023-09-12T02:56:16;25.30;67.50
44863;DHT22;30597;49.628;10.850;2023-09-12T02:58:42;25.20;67.40
44863;DHT22;30597;49.628;10.850;2023-09-12T03:01:07;25.20;67.70
44863;DHT22;30597;49.628;10.850;2023-09-12T03:03:33;25.20;67.90
44863;DHT22;30597;49.628;10.850;2023-09-12T03:06:02;25.20;68.30
44863;DHT22;30597;49.628;10.850;2023-09-12T03:08:30;25.20;68.20
44863;DHT22;30597;49.628;10.850;2023-09-12T03:10:56;25.20;68.10
44863;DHT22;30597;49.628;10.850;2023-09-12T03:13:25;25.20;68.10
44863;DHT22;30597;49.628;10.850;2023-09-12T03:15:51;25.20;68.40
44863;DHT22;30597;49.628;10.850;2023-09-12T03:18:17;25.20;68.30
44863;DHT22;30597;49.628;10.850;2023-09-12T03:20:42;25.10;68.20
44863;DHT22;30597;49.628;10.850;2023-09-12T03:23:08;25.10;68.30
44863;DHT22;30597;49.628;10.850;2023-09-12T03:25:38;25.10;68.30
44863;DHT22;30597;49.628;10.850;2023-09-12T03:28:05;25.10;68.50
44863;DHT22;30597;49.628;10.850;2023-09-12T03:30:35;25.10;68.60
44863;DHT22;30597;49.628;10.850;2023-09-12T03:33:00;25.10;68.70
44863;DHT22;30597;49.628;10.850;2023-09-12T03:35:28;25.10;68.60
44863;DHT22;30597;49.628;10.850;2023-09-12T03:37:53;25.10;68.70
44863;DHT22;30597;49.628;10.850;2023-09-12T03:40:19;25.20;68.70
44863;DHT22;30597;49.628;10.850;2023-09-12T03:42:45;25.00;68.70
44863;DHT22;30597;49.628;10.850;2023-09-12T03:45:10;25.00;68.70
44863;DHT22;30597;49.628;10.850;2023-09-12T03:47:36;25.00;68.90
44863;DHT22;30597;49.628;10.850;2023-09-12T03:50:02;25.00;68.80
44863;DHT22;30597;49.628;10.850;2023-09-12T03:52:27;25.00;68.90
44863;DHT22;30597;49.628;10.850;2023-09-12T03:54:53;25.00;68.80
44863;DHT22;30597;49.628;10.850;2023-09-12T03:57:19;25.00;68.80
44863;DHT22;30597;49.628;10.850;2023-09-12T03:59:44;25.00;68.80
44863;DHT22;30597;49.628;10.850;2023-09-12T04:02:12;25.00;69.00
44863;DHT22;30597;49.628;10.850;2023-09-12T04:04:37;25.00;69.00
44863;DHT22;30597;49.628;10.850;2023-09-12T04:07:03;25.00;69.00
44863;DHT22;30597;49.628;10.850;2023-09-12T04:09:29;25.00;68.90
44863;DHT22;30597;49.628;10.850;2023-09-12T04:11:55;25.00;69.00
44863;DHT22;30597;49.628;10.850;2023-09-12T04:14:21;25.00;69.10
44863;DHT22;30597;49.628;10.850;2023-09-12T04:16:46;24.90;69.00
44863;DHT22;30597;49.628;10.850;2023-09-12T04:19:13;24.90;69.10
44863;DHT22;30597;49.628;10.850;2023-09-12T04:21:39;24.90;69.20
44863;DHT22;30597;49.628;10.850;2023-09-12T04:24:05;24.90;69.20
44863;DHT22;30597;49.628;10.850;2023-09-12T04:26:31;24.90;69.20
44863;DHT22;30597;49.628;10.850;2023-09-12T04:28:56;24.90;69.20
44863;DHT22;30597;49.628;10.850;2023-09-12T04:31:22;24.90;69.30
44863;DHT22;30597;49.628;10.850;2023-09-12T04:33:47;24.90;69.30
44863;DHT22;30597;49.628;10.850;2023-09-12T04:36:13;24.90;69.40
44863;DHT22;30597;49.628;10.850;2023-09-12T04:38:38;24.90;69.30
44863;DHT22;30597;49.628;10.850;2023-09-12T04:41:04;24.90;69.50
44863;DHT22;30597;49.628;10.850;2023-09-12T04:43:32;25.00;69.90
44863;DHT22;30597;49.628;10.850;2023-09-12T04:45:58;24.90;69.70
44863;DHT22;30597;49.628;10.850;2023-09-12T04:48:24;24.90;69.70
44863;DHT22;30597;49.628;10.850;2023-09-12T04:50:49;24.90;69.70
44863;DHT22;30597;49.628;10.850;2023-09-12T04:53:16;24.80;69.60
44863;DHT22;30597;49.628;10.850;2023-09-12T04:55:42;24.90;70.00
44863;DHT22;30597;49.628;10.850;2023-09-12T04:58:08;24.80;69.80
44863;DHT22;30597;49.628;10.850;2023-09-12T05:00:33;24.80;69.80
44863;DHT22;30597;49.628;10.850;2023-09-12T05:03:00;24.80;69.70
44863;DHT22;30597;49.628;10.850;2023-09-12T05:05:26;24.80;70.70
44863;DHT22;30597;49.628;10.850;2023-09-12T05:07:51;24.80;69.80
44863;DHT22;30597;49.628;10.850;2023-09-12T05:10:17;24.80;69.80
44863;DHT22;30597;49.628;10.850;2023-09-12T05:12:44;24.90;70.10
44863;DHT22;30597;49.628;10.850;2023-09-12T05:15:10;24.80;70.00
44863;DHT22;30597;49.628;10.850;2023-09-12T05:17:35;24.80;70.10
44863;DHT22;30597;49.628;10.850;2023-09-12T05:20:02;24.80;70.10
44863;DHT22;30597;49.628;10.850;2023-09-12T05:22:28;24.80;70.30
44863;DHT22;30597;49.628;10.850;2023-09-12T05:24:54;24.80;70.30
44863;DHT22;30597;49.628;10.850;2023-09-12T05:27:20;24.80;70.30
44863;DHT22;30597;49.628;10.850;2023-09-12T05:29:45;24.80;70.30
44863;DHT22;30597;49.628;10.850;2023-09-12T05:32:11;24.80;70.20
44863;DHT22;30597;49.628;10.850;2023-09-12T05:34:36;24.80;70.30
44863;DHT22;30597;49.628;10.850;2023-09-12T05:37:02;24.80;70.30
44863;DHT22;30597;49.628;10.850;2023-09-12T05:39:28;24.80;70.30
44863;DHT22;30597;49.628;10.850;2023-09-12T05:41:53;24.80;70.20
44863;DHT22;30597;49.628;10.850;2023-09-12T05:44:19;24.80;70.20
44863;DHT22;30597;49.628;10.850;2023-09-12T05:46:46;24.80;70.20
44863;DHT22;30597;49.628;10.850;2023-09-12T05:49:13;24.80;70.30
44863;DHT22;30597;49.628;10.850;2023-09-12T05:51:38;24.80;70.30
44863;DHT22;30597;49.628;10.850;2023-09-12T05:54:04;24.80;70.20
44863;DHT22;30597;49.628;10.850;2023-09-12T05:56:29;24.80;70.10
44863;DHT22;30597;49.628;10.850;2023-09-12T05:58:55;24.80;70.20
44863;DHT22;30597;49.628;10.850;2023-09-12T06:01:20;24.80;70.30
44863;DHT22;30597;49.628;10.850;2023-09-12T06:03:46;24.90;70.50
44863;DHT22;30597;49.628;10.850;2023-09-12T06:06:12;24.80;70.70
44863;DHT22;30597;49.628;10.850;2023-09-12T06:08:37;24.80;70.60
44863;DHT22;30597;49.628;10.850;2023-09-12T06:11:03;24.80;70.40
44863;DHT22;30597;49.628;10.850;2023-09-12T06:13:29;24.80;70.50
44863;DHT22;30597;49.628;10.850;2023-09-12T06:15:55;24.80;70.60
44863;DHT22;30597;49.628;10.850;2023-09-12T06:18:21;24.80;70.80
44863;DHT22;30597;49.628;10.850;2023-09-12T06:20:46;24.80;70.70
44863;DHT22;30597;49.628;10.850;2023-09-12T06:23:12;24.80;70.60
44863;DHT22;30597;49.628;10.850;2023-09-12T06:25:38;24.80;70.90
44863;DHT22;30597;49.628;10.850;2023-09-12T06:28:03;24.80;70.90
44863;DHT22;30597;49.628;10.850;2023-09-12T06:30:29;24.80;70.70
44863;DHT22;30597;49.628;10.850;2023-09-12T06:32:55;24.80;71.10
44863;DHT22;30597;49.628;10.850;2023-09-12T06:35:20;24.80;70.90
44863;DHT22;30597;49.628;10.850;2023-09-12T06:37:46;24.90;71.10
44863;DHT22;30597;49.628;10.850;2023-09-12T06:40:12;24.90;71.30
44863;DHT22;30597;49.628;10.850;2023-09-12T06:42:38;24.90;71.30
44863;DHT22;30597;49.628;10.850;2023-09-12T06:45:03;24.90;71.40
44863;DHT22;30597;49.628;10.850;2023-09-12T06:47:29;24.90;71.20
44863;DHT22;30597;49.628;10.850;2023-09-12T06:49:55;24.90;71.40
44863;DHT22;30597;49.628;10.850;2023-09-12T06:52:20;24.90;71.40
44863;DHT22;30597;49.628;10.850;2023-09-12T06:54:46;25.00;71.40
44863;DHT22;30597;49.628;10.850;2023-09-12T06:57:11;25.00;70.70
44863;DHT22;30597;49.628;10.850;2023-09-12T06:59:37;24.90;70.70
44863;DHT22;30597;49.628;10.850;2023-09-12T07:02:03;25.00;70.90
44863;DHT22;30597;49.628;10.850;2023-09-12T07:04:29;25.10;70.90
44863;DHT22;30597;49.628;10.850;2023-09-12T07:06:55;25.10;70.90
44863;DHT22;30597;49.628;10.850;2023-09-12T07:09:20;25.10;70.80
44863;DHT22;30597;49.628;10.850;2023-09-12T07:11:47;25.10;70.80
44863;DHT22;30597;49.628;10.850;2023-09-12T07:14:13;25.20;70.70
44863;DHT22;30597;49.628;10.850;2023-09-12T07:16:39;25.20;70.60
44863;DHT22;30597;49.628;10.850;2023-09-12T07:19:04;25.20;70.40
44863;DHT22;30597;49.628;10.850;2023-09-12T07:21:31;25.20;70.40
44863;DHT22;30597;49.628;10.850;2023-09-12T07:23:57;25.20;71.30
44863;DHT22;30597;49.628;10.850;2023-09-12T07:26:22;25.20;70.30
44863;DHT22;30597;49.628;10.850;2023-09-12T07:28:48;25.30;70.30
44863;DHT22;30597;49.628;10.850;2023-09-12T07:31:14;25.20;69.60
44863;DHT22;30597;49.628;10.850;2023-09-12T07:33:39;25.20;69.40
44863;DHT22;30597;49.628;10.850;2023-09-12T07:36:06;25.20;69.50
44863;DHT22;30597;49.628;10.850;2023-09-12T07:38:32;25.20;69.40
44863;DHT22;30597;49.628;10.850;2023-09-12T07:40:58;25.30;69.60
44863;DHT22;30597;49.628;10.850;2023-09-12T07:43:25;25.30;69.60
44863;DHT22;30597;49.628;10.850;2023-09-12T07:45:58;25.30;69.60
44863;DHT22;30597;49.628;10.850;2023-09-12T07:48:24;25.30;69.80
44863;DHT22;30597;49.628;10.850;2023-09-12T07:50:49;25.50;69.60
44863;DHT22;30597;49.628;10.850;2023-09-12T07:53:16;25.40;69.70
44863;DHT22;30597;49.628;10.850;2023-09-12T07:55:43;25.40;69.50
44863;DHT22;30597;49.628;10.850;2023-09-12T07:58:15;25.40;69.50
44863;DHT22;30597;49.628;10.850;2023-09-12T08:00:43;25.50;69.50
44863;DHT22;30597;49.628;10.850;2023-09-12T08:03:09;25.50;69.30
44863;DHT22;30597;49.628;10.850;2023-09-12T08:05:34;25.50;69.20
44863;DHT22;30597;49.628;10.850;2023-09-12T08:08:00;25.50;69.10
44863;DHT22;30597;49.628;10.850;2023-09-12T08:10:26;25.50;69.20
44863;DHT22;30597;49.628;10.850;2023-09-12T08:12:52;25.50;69.10
44863;DHT22;30597;49.628;10.850;2023-09-12T08:15:17;25.60;69.20
44863;DHT22;30597;49.628;10.850;2023-09-12T08:17:43;25.60;69.90
44863;DHT22;30597;49.628;10.850;2023-09-12T08:20:09;25.60;69.00
44863;DHT22;30597;49.628;10.850;2023-09-12T08:22:37;25.60;68.90
44863;DHT22;30597;49.628;10.850;2023-09-12T08:25:03;25.60;68.70
44863;DHT22;30597;49.628;10.850;2023-09-12T08:27:29;25.70;68.80
44863;DHT22;30597;49.628;10.850;2023-09-12T08:29:55;25.60;68.70
44863;DHT22;30597;49.628;10.850;2023-09-12T08:32:21;25.60;68.60
44863;DHT22;30597;49.628;10.850;2023-09-12T08:34:46;25.70;68.50
44863;DHT22;30597;49.628;10.850;2023-09-12T08:37:12;25.70;68.60
44863;DHT22;30597;49.628;10.850;2023-09-12T08:39:42;25.70;68.70
44863;DHT22;30597;49.628;10.850;2023-09-12T08:42:12;25.70;68.20
44863;DHT22;30597;49.628;10.850;2023-09-12T08:44:38;25.70;68.20
44863;DHT22;30597;49.628;10.850;2023-09-12T08:47:04;25.80;68.30
44863;DHT22;30597;49.628;10.850;2023-09-12T08:49:33;25.80;68.10
44863;DHT22;30597;49.628;10.850;2023-09-12T08:52:00;25.80;68.00
44863;DHT22;30597;49.628;10.850;2023-09-12T08:54:25;25.80;67.70
44863;DHT22;30597;49.628;10.850;2023-09-12T08:56:51;25.90;67.80
44863;DHT22;30597;49.628;10.850;2023-09-12T08:59:17;25.80;67.70
44863;DHT22;30597;49.628;10.850;2023-09-12T09:01:43;25.80;67.60
44863;DHT22;30597;49.628;10.850;2023-09-12T09:04:10;25.90;67.70
44863;DHT22;30597;49.628;10.850;2023-09-12T09:06:36;25.80;67.70
44863;DHT22;30597;49.628;10.850;2023-09-12T09:09:05;25.80;67.60
44863;DHT22;30597;49.628;10.850;2023-09-12T09:11:30;25.80;67.60
44863;DHT22;30597;49.628;10.850;2023-09-12T09:13:56;25.90;68.00
44863;DHT22;30597;49.628;10.850;2023-09-12T09:16:23;25.90;67.20
44863;DHT22;30597;49.628;10.850;2023-09-12T09:21:18;25.80;67.00
44863;DHT22;30597;49.628;10.850;2023-09-12T09:23:50;25.80;67.10
44863;DHT22;30597;49.628;10.850;2023-09-12T09:26:16;25.80;67.10
44863;DHT22;30597;49.628;10.850;2023-09-12T09:28:41;25.80;66.90
44863;DHT22;30597;49.628;10.850;2023-09-12T09:31:14;25.90;66.90
44863;DHT22;30597;49.628;10.850;2023-09-12T09:33:40;25.90;67.10
44863;DHT22;30597;49.628;10.850;2023-09-12T09:36:07;25.90;67.10
44863;DHT22;30597;49.628;10.850;2023-09-12T09:38:35;25.90;67.40
44863;DHT22;30597;49.628;10.850;2023-09-12T09:41:04;25.90;67.10
44863;DHT22;30597;49.628;10.850;2023-09-12T09:43:31;25.90;67.20
44863;DHT22;30597;49.628;10.850;2023-09-12T09:45:59;25.90;66.90
44863;DHT22;30597;49.628;10.850;2023-09-12T09:48:26;26.10;66.80
44863;DHT22;30597;49.628;10.850;2023-09-12T09:51:02;26.00;67.00
44863;DHT22;30597;49.628;10.850;2023-09-12T09:53:30;25.90;66.70
44863;DHT22;30597;49.628;10.850;2023-09-12T09:56:14;26.00;67.00
44863;DHT22;30597;49.628;10.850;2023-09-12T09:58:56;25.90;66.60
44863;DHT22;30597;49.628;10.850;2023-09-12T10:01:26;25.90;67.30
44863;DHT22;30597;49.628;10.850;2023-09-12T10:03:53;25.90;66.90
44863;DHT22;30597;49.628;10.850;2023-09-12T10:06:21;25.90;66.70
44863;DHT22;30597;49.628;10.850;2023-09-12T10:08:54;25.90;66.40
44863;DHT22;30597;49.628;10.850;2023-09-12T10:11:24;25.90;66.70
44863;DHT22;30597;49.628;10.850;2023-09-12T10:13:54;25.90;66.50
44863;DHT22;30597;49.628;10.850;2023-09-12T10:16:25;25.90;66.50
44863;DHT22;30597;49.628;10.850;2023-09-12T10:18:59;25.90;66.50
44863;DHT22;30597;49.628;10.850;2023-09-12T10:21:30;25.90;66.40
44863;DHT22;30597;49.628;10.850;2023-09-12T10:23:58;25.90;66.40
44863;DHT22;30597;49.628;10.850;2023-09-12T10:26:24;25.90;66.70
44863;DHT22;30597;49.628;10.850;2023-09-12T10:28:50;25.90;66.40
44863;DHT22;30597;49.628;10.850;2023-09-12T10:31:17;25.90;66.80
44863;DHT22;30597;49.628;10.850;2023-09-12T10:33:43;25.90;66.70
44863;DHT22;30597;49.628;10.850;2023-09-12T10:36:11;25.80;66.80
44863;DHT22;30597;49.628;10.850;2023-09-12T10:38:42;25.80;66.60
44863;DHT22;30597;49.628;10.850;2023-09-12T10:41:12;25.90;66.50
44863;DHT22;30597;49.628;10.850;2023-09-12T10:43:43;25.80;66.50
44863;DHT22;30597;49.628;10.850;2023-09-12T10:46:09;25.90;66.40
44863;DHT22;30597;49.628;10.850;2023-09-12T10:48:36;25.90;66.10
44863;DHT22;30597;49.628;10.850;2023-09-12T10:51:02;25.90;66.50
44863;DHT22;30597;49.628;10.850;2023-09-12T10:53:30;25.90;66.50
44863;DHT22;30597;49.628;10.850;2023-09-12T10:56:00;26.00;66.50
44863;DHT22;30597;49.628;10.850;2023-09-12T10:58:26;25.90;66.50
44863;DHT22;30597;49.628;10.850;2023-09-12T11:01:26;25.90;66.20
44863;DHT22;30597;49.628;10.850;2023-09-12T11:03:52;26.00;66.30
44863;DHT22;30597;49.628;10.850;2023-09-12T11:06:28;26.00;66.40
44863;DHT22;30597;49.628;10.850;2023-09-12T11:09:16;26.00;66.50
44863;DHT22;30597;49.628;10.850;2023-09-12T11:11:45;26.00;66.50
44863;DHT22;30597;49.628;10.850;2023-09-12T11:14:14;26.00;66.60
44863;DHT22;30597;49.628;10.850;2023-09-12T11:16:41;26.00;66.70
44863;DHT22;30597;49.628;10.850;2023-09-12T11:21:43;26.00;66.80
44863;DHT22;30597;49.628;10.850;2023-09-12T11:24:08;26.10;66.70
44863;DHT22;30597;49.628;10.850;2023-09-12T11:26:34;26.00;66.50
44863;DHT22;30597;49.628;10.850;2023-09-12T11:29:13;26.00;66.40
44863;DHT22;30597;49.628;10.850;2023-09-12T11:31:39;26.00;67.20
44863;DHT22;30597;49.628;10.850;2023-09-12T11:34:10;26.10;66.80
44863;DHT22;30597;49.628;10.850;2023-09-12T11:36:42;26.10;66.60
44863;DHT22;30597;49.628;10.850;2023-09-12T11:39:33;26.00;66.30
44863;DHT22;30597;49.628;10.850;2023-09-12T11:42:01;26.00;66.30
44863;DHT22;30597;49.628;10.850;2023-09-12T11:44:28;26.00;66.40
44863;DHT22;30597;49.628;10.850;2023-09-12T11:46:57;26.00;66.40
44863;DHT22;30597;49.628;10.850;2023-09-12T11:49:35;26.00;66.40
44863;DHT22;30597;49.628;10.850;2023-09-12T11:52:00;26.00;66.40
44863;DHT22;30597;49.628;10.850;2023-09-12T11:54:26;26.00;66.20
44863;DHT22;30597;49.628;10.850;2023-09-12T11:56:53;26.00;66.10
44863;DHT22;30597;49.628;10.850;2023-09-12T11:59:28;26.00;66.20
44863;DHT22;30597;49.628;10.850;2023-09-12T12:01:55;26.00;66.20
44863;DHT22;30597;49.628;10.850;2023-09-12T12:04:23;26.00;66.10
44863;DHT22;30597;49.628;10.850;2023-09-12T12:06:50;26.00;66.00
44863;DHT22;30597;49.628;10.850;2023-09-12T12:09:16;26.00;65.90
44863;DHT22;30597;49.628;10.850;2023-09-12T12:11:44;25.90;65.80
44863;DHT22;30597;49.628;10.850;2023-09-12T12:14:15;26.00;65.70
44863;DHT22;30597;49.628;10.850;2023-09-12T12:16:42;25.90;65.80
44863;DHT22;30597;49.628;10.850;2023-09-12T12:19:09;26.10;65.90
44863;DHT22;30597;49.628;10.850;2023-09-12T12:21:35;25.90;65.80
44863;DHT22;30597;49.628;10.850;2023-09-12T12:24:01;26.00;65.70
44863;DHT22;30597;49.628;10.850;2023-09-12T12:26:28;25.90;65.50
44863;DHT22;30597;49.628;10.850;2023-09-12T12:28:53;26.00;65.50
44863;DHT22;30597;49.628;10.850;2023-09-12T12:31:20;26.00;65.60
44863;DHT22;30597;49.628;10.850;2023-09-12T12:33:52;26.00;65.70
44863;DHT22;30597;49.628;10.850;2023-09-12T12:36:18;25.90;65.50
44863;DHT22;30597;49.628;10.850;2023-09-12T12:38:47;25.90;65.40
44863;DHT22;30597;49.628;10.850;2023-09-12T12:41:29;25.90;65.50
44863;DHT22;30597;49.628;10.850;2023-09-12T12:43:57;25.90;65.40
44863;DHT22;30597;49.628;10.850;2023-09-12T12:46:26;25.90;65.40
44863;DHT22;30597;49.628;10.850;2023-09-12T12:48:51;26.00;65.30
44863;DHT22;30597;49.628;10.850;2023-09-12T12:51:22;26.10;65.40
44863;DHT22;30597;49.628;10.850;2023-09-12T12:56:23;25.90;65.10
44863;DHT22;30597;49.628;10.850;2023-09-12T12:58:54;25.90;65.30
44863;DHT22;30597;49.628;10.850;2023-09-12T13:01:21;25.90;65.30
44863;DHT22;30597;49.628;10.850;2023-09-12T13:03:47;25.90;65.20
44863;DHT22;30597;49.628;10.850;2023-09-12T13:06:14;25.90;65.10
44863;DHT22;30597;49.628;10.850;2023-09-12T13:08:44;25.90;65.00
44863;DHT22;30597;49.628;10.850;2023-09-12T13:11:11;25.90;65.10
44863;DHT22;30597;49.628;10.850;2023-09-12T13:13:38;25.90;65.10
44863;DHT22;30597;49.628;10.850;2023-09-12T13:16:04;25.90;65.10
44863;DHT22;30597;49.628;10.850;2023-09-12T13:18:33;25.90;65.10
44863;DHT22;30597;49.628;10.850;2023-09-12T13:20:59;25.90;65.00
44863;DHT22;30597;49.628;10.850;2023-09-12T13:23:25;25.90;64.60
44863;DHT22;30597;49.628;10.850;2023-09-12T13:25:51;25.90;64.60
44863;DHT22;30597;49.628;10.850;2023-09-12T13:28:17;25.90;64.40
44863;DHT22;30597;49.628;10.850;2023-09-12T13:30:43;25.90;64.30
44863;DHT22;30597;49.628;10.850;2023-09-12T13:33:13;25.90;64.60
44863;DHT22;30597;49.628;10.850;2023-09-12T13:35:41;25.90;64.70
44863;DHT22;30597;49.628;10.850;2023-09-12T13:38:07;26.00;64.60
44863;DHT22;30597;49.628;10.850;2023-09-12T13:40:44;26.00;64.80
44863;DHT22;30597;49.628;10.850;2023-09-12T13:43:11;25.90;64.80
44863;DHT22;30597;49.628;10.850;2023-09-12T13:45:37;26.00;64.80
44863;DHT22;30597;49.628;10.850;2023-09-12T13:48:03;25.90;64.60
44863;DHT22;30597;49.628;10.850;2023-09-12T13:50:30;26.00;64.80
44863;DHT22;30597;49.628;10.850;2023-09-12T13:52:59;26.00;64.60
44863;DHT22;30597;49.628;10.850;2023-09-12T13:55:25;25.90;64.60
44863;DHT22;30597;49.628;10.850;2023-09-12T13:57:51;26.00;64.60
44863;DHT22;30597;49.628;10.850;2023-09-12T14:00:16;26.00;64.50
44863;DHT22;30597;49.628;10.850;2023-09-12T14:02:42;26.00;64.50
44863;DHT22;30597;49.628;10.850;2023-09-12T14:05:09;25.90;64.30
44863;DHT22;30597;49.628;10.850;2023-09-12T14:07:36;25.90;64.60
44863;DHT22;30597;49.628;10.850;2023-09-12T14:10:02;26.00;64.60
44863;DHT22;30597;49.628;10.850;2023-09-12T14:12:28;26.00;64.60
44863;DHT22;30597;49.628;10.850;2023-09-12T14:14:54;26.00;64.70
44863;DHT22;30597;49.628;10.850;2023-09-12T14:17:19;26.00;64.50
44863;DHT22;30597;49.628;10.850;2023-09-12T14:19:45;26.00;64.50
44863;DHT22;30597;49.628;10.850;2023-09-12T14:22:11;26.00;64.10
44863;DHT22;30597;49.628;10.850;2023-09-12T14:24:36;26.00;64.30
44863;DHT22;30597;49.628;10.850;2023-09-12T14:27:04;26.00;64.20
44863;DHT22;30597;49.628;10.850;2023-09-12T14:29:29;26.10;64.40
44863;DHT22;30597;49.628;10.850;2023-09-12T14:31:56;26.10;64.20
44863;DHT22;30597;49.628;10.850;2023-09-12T14:34:25;26.00;64.30
44863;DHT22;30597;49.628;10.850;2023-09-12T14:36:55;26.10;64.30
44863;DHT22;30597;49.628;10.850;2023-09-12T14:39:21;26.00;64.20
44863;DHT22;30597;49.628;10.850;2023-09-12T14:41:47;26.00;64.10
44863;DHT22;30597;49.628;10.850;2023-09-12T14:44:18;26.00;64.20
44863;DHT22;30597;49.628;10.850;2023-09-12T14:46:43;26.00;65.00
44863;DHT22;30597;49.628;10.850;2023-09-12T14:49:09;26.00;64.20
44863;DHT22;30597;49.628;10.850;2023-09-12T14:51:36;26.10;64.60
44863;DHT22;30597;49.628;10.850;2023-09-12T14:54:05;26.10;64.90
44863;DHT22;30597;49.628;10.850;2023-09-12T14:56:32;26.10;64.90
44863;DHT22;30597;49.628;10.850;2023-09-12T14:58:58;26.10;64.90
44863;DHT22;30597;49.628;10.850;2023-09-12T15:01:23;26.10;64.80
44863;DHT22;30597;49.628;10.850;2023-09-12T15:03:50;26.10;64.80
44863;DHT22;30597;49.628;10.850;2023-09-12T15:06:16;26.10;64.80
44863;DHT22;30597;49.628;10.850;2023-09-12T15:08:41;26.20;64.70
44863;DHT22;30597;49.628;10.850;2023-09-12T15:11:07;26.10;64.70
44863;DHT22;30597;49.628;10.850;2023-09-12T15:13:32;26.10;64.60
44863;DHT22;30597;49.628;10.850;2023-09-12T15:15:58;26.10;64.60
44863;DHT22;30597;49.628;10.850;2023-09-12T15:18:23;26.10;64.60
44863;DHT22;30597;49.628;10.850;2023-09-12T15:20:51;26.20;64.60
44863;DHT22;30597;49.628;10.850;2023-09-12T15:23:18;26.10;64.70
44863;DHT22;30597;49.628;10.850;2023-09-12T15:25:44;26.00;64.50